Rocky Mountain House, Canada
Current Conditions -  °F | °C
As of 9:00 AM on Thursday 23 Oct 2014 (Local Time) from CYQF Reporting Station
Few Clouds Few Clouds  
Wind Chill: 33°   Ceiling: Unl
Heat Index: 39°   Visibility: 15mi
Dew Point: 34°   Wind: 9mph
Humidity: 81%   Direction: 220°SW
Pressure: 29.47"   Gusts: NA
Location:  52.38°N, 114.93°W
Report Text: CYQF 231500Z 22008KT 15SM FEW100 04/01 A2947 RMK AC2 PRESRR SLP003
Loading
Personal Weather Stations






























Interactive Weather Map
Tropical Storm Tracking
New forecast layout! Learn more

10-Day Weather Forecast

Advertisements
Track Severe Weather on mobile